Time;durP1;ratioP1;P1;durP2;ratioP2;P2;SDS_P1;SDS_P2;PMS_P1;PMS_P2;Temp;Humidity;BMP_temperature;BMP_pressure;BME280_temperature;BME280_humidity;BME280_pressure;Samples;Min_cycle;Max_cycle;Signal;HPM_P1;HPM_P2
2021/07/12 00:00:20;;;;;;;;;5.00;5.00;;;;;21.60;100.00;100872.47;5052166;28;45549;-78
2021/07/12 00:02:46;;;;;;;;;5.75;5.00;;;;;21.64;100.00;100879.31;5050097;28;45262;-78
2021/07/12 00:05:13;;;;;;;;;6.25;6.25;;;;;21.54;100.00;100856.91;5036720;28;45506;-77
2021/07/12 00:07:39;;;;;;;;;5.00;4.00;;;;;21.56;100.00;100865.66;5026543;28;45437;-78
2021/07/12 00:10:07;;;;;;;;;6.00;6.00;;;;;21.54;100.00;100856.91;5050016;28;45446;-79
2021/07/12 00:12:33;;;;;;;;;4.75;4.75;;;;;21.45;100.00;100841.47;5038244;28;45502;-78
2021/07/12 00:14:59;;;;;;;;;6.50;5.75;;;;;21.50;100.00;100839.44;5024936;28;45567;-77
2021/07/12 00:17:24;;;;;;;;;6.25;5.75;;;;;21.48;100.00;100837.78;5057023;28;45423;-77
2021/07/12 00:19:50;;;;;;;;;5.25;4.50;;;;;21.43;100.00;100824.78;5057605;28;46376;-77
2021/07/12 00:22:15;;;;;;;;;5.00;5.00;;;;;21.37;100.00;100811.84;5059567;28;45332;-77
2021/07/12 00:24:40;;;;;;;;;7.00;7.00;;;;;21.44;100.00;100820.31;5057089;28;45432;-77
2021/07/12 00:27:06;;;;;;;;;6.00;6.00;;;;;21.37;100.00;100814.50;5034293;28;45583;-78
2021/07/12 00:29:31;;;;;;;;;6.00;6.00;;;;;21.36;100.00;100823.44;5056754;28;46408;-78
2021/07/12 00:31:56;;;;;;;;;5.50;5.50;;;;;21.36;100.00;100836.72;5045419;28;45219;-78
2021/07/12 00:34:22;;;;;;;;;6.00;5.25;;;;;21.30;100.00;100835.28;5048306;28;45598;-77
2021/07/12 00:36:48;;;;;;;;;5.00;5.00;;;;;21.26;100.00;100827.53;5043968;28;45231;-79
2021/07/12 00:39:13;;;;;;;;;6.00;6.00;;;;;21.24;100.00;100832.94;5031411;28;46572;-79
2021/07/12 00:41:39;;;;;;;;;6.00;6.00;;;;;21.26;100.00;100843.47;5047877;28;45349;-79
2021/07/12 00:44:05;;;;;;;;;6.75;6.75;;;;;21.25;100.00;100852.38;5061299;28;45321;-77
2021/07/12 00:46:31;;;;;;;;;7.25;5.75;;;;;21.24;100.00;100850.69;5061593;28;45452;-78
2021/07/12 00:48:56;;;;;;;;;5.75;5.75;;;;;21.18;100.00;100854.50;5042448;28;45355;-77
2021/07/12 00:51:22;;;;;;;;;6.25;6.00;;;;;21.18;100.00;100866.94;5057749;28;45368;-78
2021/07/12 00:53:49;;;;;;;;;6.25;6.25;;;;;21.04;100.00;100854.41;5057033;28;45470;-78
2021/07/12 00:56:14;;;;;;;;;7.00;7.00;;;;;21.15;100.00;100869.75;5069538;28;45185;-78
2021/07/12 00:58:40;;;;;;;;;6.00;6.00;;;;;21.08;100.00;100854.19;5045063;28;46984;-77
2021/07/12 01:01:05;;;;;;;;;5.00;4.50;;;;;21.10;100.00;100846.13;5062213;28;45432;-78
2021/07/12 01:03:31;;;;;;;;;6.75;5.00;;;;;21.15;100.00;100856.47;5055029;28;45381;-79
2021/07/12 01:05:58;;;;;;;;;7.25;7.00;;;;;21.14;100.00;100846.81;5064517;28;45728;-77
2021/07/12 01:08:24;;;;;;;;;5.25;5.00;;;;;21.09;100.00;100839.09;5071226;28;46161;-77
2021/07/12 01:11:02;;;;;;;;;5.50;5.25;;;;;21.09;100.00;100836.47;5066384;28;45361;-77
2021/07/12 01:13:30;;;;;;;;;4.50;4.50;;;;;21.12;100.00;100846.03;5060612;28;45480;-78
2021/07/12 01:16:33;;;;;;;;;6.50;6.00;;;;;21.13;100.00;100837.13;5061525;28;45406;-78
2021/07/12 01:19:48;;;;;;;;;6.00;5.25;;;;;21.12;100.00;100830.09;5050865;28;45524;-77
2021/07/12 01:22:14;;;;;;;;;6.25;5.50;;;;;21.12;100.00;100808.88;4973719;28;45423;-77
2021/07/12 01:25:03;;;;;;;;;6.75;6.25;;;;;21.11;100.00;100800.06;4981822;28;45384;-77
2021/07/12 01:28:09;;;;;;;;;7.00;7.00;;;;;21.10;100.00;100788.56;4985333;28;45897;-78
2021/07/12 01:31:05;;;;;;;;;6.00;5.00;;;;;21.09;100.00;100786.88;4970080;28;46052;-78
2021/07/12 01:33:33;;;;;;;;;8.00;7.50;;;;;21.09;100.00;100780.69;4981579;28;45582;-78
2021/07/12 01:36:07;;;;;;;;;5.25;4.50;;;;;21.08;100.00;100774.53;4987447;28;44731;-78
2021/07/12 01:38:43;;;;;;;;;6.75;6.50;;;;;21.05;100.00;100765.91;4981155;28;45316;-78
2021/07/12 01:42:00;;;;;;;;;7.75;7.75;;;;;21.09;100.00;100762.97;4980431;28;45731;-78
2021/07/12 01:44:39;;;;;;;;;7.50;6.50;;;;;21.04;100.00;100758.84;4946138;28;45568;-78
2021/07/12 01:47:36;;;;;;;;;7.00;7.00;;;;;21.08;100.00;100761.25;4947188;28;45380;-77
2021/07/12 01:50:26;;;;;;;;;5.75;5.75;;;;;21.08;100.00;100760.41;4889626;29;45598;-77
2021/07/12 01:53:09;;;;;;;;;6.50;6.50;;;;;21.07;100.00;100759.56;4885523;29;46706;-77
2021/07/12 01:55:55;;;;;;;;;4.25;4.25;;;;;21.05;100.00;100756.13;4884226;29;45617;-78
2021/07/12 01:58:27;;;;;;;;;5.00;5.00;;;;;21.07;100.00;100759.56;4904163;28;45424;-78
2021/07/12 02:00:53;;;;;;;;;5.00;5.00;;;;;21.04;100.00;100772.97;4943367;28;45352;-80
2021/07/12 02:03:21;;;;;;;;;5.75;5.00;;;;;21.02;100.00;100766.91;4942494;28;45476;-78
2021/07/12 02:05:48;;;;;;;;;5.25;4.00;;;;;21.01;100.00;100778.47;4942896;28;45584;-78
2021/07/12 02:08:22;;;;;;;;;4.75;4.75;;;;;20.94;100.00;100766.50;4943042;28;45535;-78
2021/07/12 02:10:50;;;;;;;;;7.50;4.00;;;;;20.98;100.00;100770.66;4947612;28;45586;-78
2021/07/12 02:13:18;;;;;;;;;5.00;4.25;;;;;21.08;100.00;100784.31;4948145;28;45557;-77
2021/07/12 02:15:47;;;;;;;;;7.50;5.75;;;;;21.08;100.00;100786.94;4943003;28;45416;-78
2021/07/12 02:18:14;;;;;;;;;5.00;5.00;;;;;21.03;100.00;100773.91;4941513;28;44927;-79
2021/07/12 02:20:40;;;;;;;;;4.75;4.75;;;;;21.04;100.00;100777.44;4954709;28;45459;-78
2021/07/12 02:23:08;;;;;;;;;4.50;3.75;;;;;21.11;100.00;100792.09;4957658;28;45395;-79
2021/07/12 02:25:35;;;;;;;;;5.25;4.50;;;;;21.10;100.00;100788.56;4958781;28;45440;-79
2021/07/12 02:28:01;;;;;;;;;5.75;4.75;;;;;21.14;100.00;100799.00;5055128;28;45402;-78
2021/07/12 02:30:29;;;;;;;;;4.75;4.75;;;;;21.12;100.00;100798.25;5059602;28;45365;-78
2021/07/12 02:32:55;;;;;;;;;4.50;4.50;;;;;21.14;100.00;100796.34;5059468;28;45661;-78
2021/07/12 02:35:21;;;;;;;;;6.00;6.00;;;;;21.12;100.00;100785.81;5043897;28;45628;-78
2021/07/12 02:37:47;;;;;;;;;4.75;4.75;;;;;21.20;100.00;100790.69;5039090;28;45450;-78
2021/07/12 02:40:17;;;;;;;;;3.75;3.75;;;;;21.19;100.00;100779.22;5051851;28;45473;-78
2021/07/12 02:42:46;;;;;;;;;4.75;4.75;;;;;21.18;100.00;100768.69;5051185;28;45481;-78
2021/07/12 02:45:12;;;;;;;;;5.75;4.50;;;;;21.16;100.00;100757.28;5058016;28;45474;-78
2021/07/12 02:47:39;;;;;;;;;5.00;4.75;;;;;21.15;100.00;100745.81;5045224;28;45479;-78
2021/07/12 02:50:06;;;;;;;;;4.50;4.50;;;;;21.17;100.00;100743.06;5050538;28;45482;-78
2021/07/12 02:52:52;;;;;;;;;3.75;3.75;;;;;21.14;100.00;100733.50;5046885;28;46814;-78
2021/07/12 02:55:17;;;;;;;;;4.25;4.25;;;;;21.02;100.00;100695.22;5036076;28;45239;-78
2021/07/12 02:57:43;;;;;;;;;5.50;4.75;;;;;20.99;100.00;100670.66;5049260;28;45526;-79
2021/07/12 03:00:11;;;;;;;;;4.75;4.75;;;;;21.01;100.00;100676.72;5053146;28;45512;-77
2021/07/12 03:02:36;;;;;;;;;7.50;6.50;;;;;20.94;100.00;100672.72;5037142;28;46287;-77
2021/07/12 03:05:06;;;;;;;;;5.75;5.75;;;;;20.88;100.00;100678.41;5051499;28;45799;-78
2021/07/12 03:07:43;;;;;;;;;5.00;5.00;;;;;20.88;100.00;100689.88;5030848;28;45362;-79
2021/07/12 03:10:13;;;;;;;;;5.75;5.75;;;;;20.85;100.00;100697.16;5039039;28;45614;-78
2021/07/12 03:12:47;;;;;;;;;5.25;5.25;;;;;20.86;100.00;100705.03;5057310;28;46396;-77
2021/07/12 03:15:14;;;;;;;;;4.25;4.25;;;;;20.73;100.00;100677.47;5056944;28;45362;-78
2021/07/12 03:17:45;;;;;;;;;5.50;5.25;;;;;20.81;100.00;100693.81;5046673;28;45436;-78
2021/07/12 03:20:12;;;;;;;;;5.50;5.50;;;;;20.86;100.00;100706.84;5054345;28;45464;-78
2021/07/12 03:22:39;;;;;;;;;5.75;5.75;;;;;20.83;100.00;100693.75;5052725;28;46680;-78
2021/07/12 03:25:07;;;;;;;;;5.75;5.25;;;;;20.89;100.00;100696.88;5055180;28;45400;-79
2021/07/12 03:27:34;;;;;;;;;8.75;7.25;;;;;20.85;100.00;100687.41;5032663;28;45380;-79
2021/07/12 03:30:04;;;;;;;;;6.75;6.50;;;;;20.88;100.00;100675.75;5051448;28;45455;-78
2021/07/12 03:32:31;;;;;;;;;4.25;4.25;;;;;20.89;100.00;100669.50;5030953;28;48423;-79
2021/07/12 03:34:58;;;;;;;;;6.50;6.25;;;;;20.86;100.00;100651.97;5052247;28;45385;-78
2021/07/12 03:37:24;;;;;;;;;5.50;4.75;;;;;20.87;100.00;100644.84;5048078;28;45378;-78
2021/07/12 03:39:51;;;;;;;;;6.50;6.50;;;;;20.88;100.00;100644.75;5052356;28;45489;-78
2021/07/12 03:42:19;;;;;;;;;5.00;5.00;;;;;20.83;100.00;100648.63;5052617;28;45483;-78
2021/07/12 03:44:44;;;;;;;;;7.75;6.00;;;;;20.87;100.00;100680.22;5038102;28;45358;-78
2021/07/12 03:47:30;;;;;;;;;5.00;4.50;;;;;20.88;100.00;100700.50;5050782;28;45353;-78
2021/07/12 03:50:12;;;;;;;;;6.00;5.00;;;;;20.88;100.00;100708.44;5043430;28;45292;-78
2021/07/12 03:52:49;;;;;;;;;7.00;6.25;;;;;20.82;100.00;100705.28;5055196;28;47411;-79
2021/07/12 03:55:17;;;;;;;;;6.00;5.00;;;;;20.84;100.00;100708.72;5034523;28;45374;-78
2021/07/12 03:57:43;;;;;;;;;5.50;5.50;;;;;20.81;100.00;100701.75;5056190;28;45511;-78
2021/07/12 04:00:12;;;;;;;;;6.00;5.75;;;;;20.84;100.00;100698.97;5050295;28;45456;-79
2021/07/12 04:02:38;;;;;;;;;5.00;4.00;;;;;20.88;100.00;100703.16;5030947;28;48068;-79
2021/07/12 04:05:06;;;;;;;;;4.75;4.75;;;;;20.86;100.00;100686.47;5054330;28;45426;-79
2021/07/12 04:07:31;;;;;;;;;5.75;5.75;;;;;20.80;100.00;100665.56;5054724;28;45444;-78
2021/07/12 04:09:56;;;;;;;;;5.75;5.25;;;;;20.85;100.00;100674.13;5054699;28;45418;-78
2021/07/12 04:12:23;;;;;;;;;7.00;5.75;;;;;20.80;100.00;100671.72;5054146;28;45693;-77
2021/07/12 04:14:53;;;;;;;;;5.00;5.00;;;;;20.90;100.00;100701.25;5052687;28;45665;-77
2021/07/12 04:17:19;;;;;;;;;7.50;6.75;;;;;20.90;100.00;100690.63;5042323;28;45429;-76
2021/07/12 04:19:45;;;;;;;;;7.00;6.00;;;;;20.87;100.00;100685.50;5056319;28;45420;-77
2021/07/12 04:22:11;;;;;;;;;5.75;5.75;;;;;20.83;100.00;100681.34;5054221;28;46568;-76
2021/07/12 04:24:36;;;;;;;;;5.25;5.25;;;;;20.94;100.00;100705.44;5056691;28;45369;-76
2021/07/12 04:27:02;;;;;;;;;7.00;6.00;;;;;20.87;100.00;100693.47;5055870;28;45416;-76
2021/07/12 04:29:27;;;;;;;;;10.00;9.00;;;;;20.88;100.00;100700.50;5057607;28;45331;-77
2021/07/12 04:31:53;;;;;;;;;7.50;7.00;;;;;20.96;100.00;100706.19;5055635;28;46402;-78
2021/07/12 04:34:18;;;;;;;;;6.00;6.00;;;;;20.94;100.00;100694.81;5059831;28;45339;-77
2021/07/12 04:36:44;;;;;;;;;7.00;6.00;;;;;20.94;100.00;100681.53;5058017;28;45680;-78
2021/07/12 04:39:09;;;;;;;;;6.00;5.50;;;;;20.93;100.00;100686.94;5055612;28;45498;-78
2021/07/12 04:41:35;;;;;;;;;7.00;7.00;;;;;20.96;100.00;100692.94;5057360;28;45484;-78
2021/07/12 04:44:00;;;;;;;;;8.00;7.25;;;;;21.00;100.00;100693.59;5055617;28;45541;-78
2021/07/12 04:46:25;;;;;;;;;7.00;6.75;;;;;20.92;100.00;100675.47;5059439;28;45499;-78
2021/07/12 04:48:51;;;;;;;;;6.50;6.50;;;;;20.96;100.00;100682.31;5059175;28;45372;-78
2021/07/12 04:51:16;;;;;;;;;6.00;6.00;;;;;20.97;100.00;100678.72;5059071;28;45492;-78
2021/07/12 04:53:42;;;;;;;;;5.00;4.75;;;;;20.93;100.00;100666.56;5058949;28;45247;-77
2021/07/12 04:56:08;;;;;;;;;6.25;6.00;;;;;20.96;100.00;100666.38;5059048;28;45402;-76
2021/07/12 04:58:43;;;;;;;;;8.75;7.25;;;;;20.92;100.00;100648.94;5059027;28;45387;-79
2021/07/12 05:01:08;;;;;;;;;6.00;6.00;;;;;20.96;100.00;100666.38;5057193;28;45541;-77
2021/07/12 05:03:34;;;;;;;;;8.25;8.25;;;;;20.99;100.00;100675.97;5045948;28;45390;-77
2021/07/12 05:05:59;;;;;;;;;6.25;6.25;;;;;20.98;100.00;100668.94;5046485;28;45362;-77
2021/07/12 05:08:25;;;;;;;;;30.25;27.00;;;;;21.03;100.00;100674.84;5040284;28;45497;-77
2021/07/12 05:10:50;;;;;;;;;12.50;11.50;;;;;21.02;100.00;100666.03;5058240;28;46344;-77
2021/07/12 05:13:16;;;;;;;;;8.75;8.75;;;;;20.91;100.00;100641.91;5044854;28;45390;-79
2021/07/12 05:15:42;;;;;;;;;6.25;5.50;;;;;21.04;100.00;100653.50;5058741;28;45195;-76
2021/07/12 05:18:07;;;;;;;;;8.50;7.00;;;;;21.01;100.00;100635.09;5059306;28;45482;-76
2021/07/12 05:20:33;;;;;;;;;6.00;6.00;;;;;21.04;100.00;100640.22;5058866;28;45548;-77
2021/07/12 05:22:59;;;;;;;;;8.25;5.75;;;;;21.08;100.00;100638.28;5058825;28;45485;-78
2021/07/12 05:25:26;;;;;;;;;7.25;5.75;;;;;21.09;100.00;100640.84;5040430;28;45314;-76
2021/07/12 05:27:52;;;;;;;;;7.50;5.75;;;;;21.09;100.00;100638.19;5047342;28;45553;-77
2021/07/12 05:30:18;;;;;;;;;5.00;5.00;;;;;21.13;100.00;100645.97;5047551;28;47201;-77
2021/07/12 05:32:43;;;;;;;;;6.75;6.75;;;;;21.12;100.00;100641.59;5052481;28;45768;-76
2021/07/12 05:35:09;;;;;;;;;8.00;7.50;;;;;21.15;100.00;100644.91;5050104;28;45321;-78
2021/07/12 05:37:35;;;;;;;;;8.50;8.00;;;;;21.13;100.00;100646.81;5045934;28;45302;-77
2021/07/12 05:40:00;;;;;;;;;8.25;5.75;;;;;21.14;100.00;100642.34;5040068;28;48081;-77
2021/07/12 05:42:26;;;;;;;;;7.00;7.00;;;;;21.12;100.00;100633.63;5047921;28;46039;-76
2021/07/12 05:44:51;;;;;;;;;7.00;6.00;;;;;21.04;100.00;100632.25;5057883;28;45404;-76
2021/07/12 05:47:17;;;;;;;;;6.25;5.50;;;;;21.14;100.00;100645.00;5051870;28;45369;-76
2021/07/12 05:49:42;;;;;;;;;5.00;5.00;;;;;21.14;100.00;100647.66;5051333;28;46317;-76
2021/07/12 05:52:08;;;;;;;;;6.00;6.00;;;;;21.10;100.00;100637.25;5039267;28;45432;-77
2021/07/12 05:54:33;;;;;;;;;7.75;7.75;;;;;21.12;100.00;100646.91;5052001;28;46131;-77
2021/07/12 05:56:58;;;;;;;;;8.25;6.75;;;;;21.12;100.00;100644.25;5039891;28;45518;-77
2021/07/12 05:59:24;;;;;;;;;6.00;6.00;;;;;21.08;100.00;100622.34;5021857;28;47940;-78
2021/07/12 06:01:50;;;;;;;;;7.25;7.25;;;;;21.18;100.00;100630.59;5058114;28;45498;-77
2021/07/12 06:04:15;;;;;;;;;6.50;6.50;;;;;21.12;100.00;100623.88;5045590;28;45382;-78
2021/07/12 06:06:41;;;;;;;;;7.00;7.00;;;;;21.19;100.00;100630.50;5056064;28;45322;-76
2021/07/12 06:09:06;;;;;;;;;5.75;5.50;;;;;21.19;100.00;100630.50;5057853;28;46286;-76
2021/07/12 06:11:31;;;;;;;;;6.50;5.00;;;;;21.23;100.00;100629.38;5043208;28;45350;-77
2021/07/12 06:13:57;;;;;;;;;4.75;4.75;;;;;21.21;100.00;100619.78;5056955;28;45547;-77
2021/07/12 06:16:22;;;;;;;;;6.50;5.75;;;;;21.18;100.00;100617.31;5055313;28;45479;-77
2021/07/12 06:18:47;;;;;;;;;5.75;5.75;;;;;21.19;100.00;100613.72;5039523;28;46170;-77
2021/07/12 06:21:13;;;;;;;;;5.75;4.75;;;;;21.24;100.00;100627.59;5057847;28;45412;-77
2021/07/12 06:23:38;;;;;;;;;7.25;6.00;;;;;21.18;100.00;100619.97;5056878;28;45343;-76
2021/07/12 06:26:04;;;;;;;;;5.50;4.75;;;;;21.15;100.00;100618.38;5055196;28;45341;-76
2021/07/12 06:28:29;;;;;;;;;6.50;5.25;;;;;21.08;100.00;100609.94;5057556;28;45440;-77
2021/07/12 06:30:54;;;;;;;;;6.00;4.75;;;;;21.10;100.00;100609.84;5054691;28;45413;-77
2021/07/12 06:33:21;;;;;;;;;4.75;4.75;;;;;21.09;100.00;100616.94;5039388;28;45156;-77
2021/07/12 06:35:47;;;;;;;;;7.00;6.25;;;;;21.11;100.00;100614.19;5052918;28;45346;-76
2021/07/12 06:38:12;;;;;;;;;5.00;4.75;;;;;20.99;100.00;100583.06;5057034;28;46460;-77
2021/07/12 06:40:38;;;;;;;;;7.00;6.75;;;;;21.12;100.00;100607.94;5057175;28;45369;-77
2021/07/12 06:43:03;;;;;;;;;6.50;5.50;;;;;21.05;100.00;100594.19;5039200;28;45439;-77
2021/07/12 06:45:29;;;;;;;;;6.00;5.00;;;;;21.04;100.00;100584.47;5034184;28;45592;-77
2021/07/12 06:47:54;;;;;;;;;4.00;3.75;;;;;21.03;100.00;100576.59;5052681;28;47073;-77
2021/07/12 06:50:22;;;;;;;;;4.50;4.50;;;;;21.10;100.00;100583.28;5054177;28;45297;-76
2021/07/12 06:52:47;;;;;;;;;5.50;5.00;;;;;21.12;100.00;100577.88;5054430;28;45492;-77
2021/07/12 06:55:13;;;;;;;;;4.50;4.50;;;;;21.18;100.00;100588.13;5054940;28;45382;-76
2021/07/12 06:57:38;;;;;;;;;5.75;5.00;;;;;21.27;100.00;100598.19;5052518;28;46446;-77
2021/07/12 07:00:05;;;;;;;;;6.00;4.75;;;;;21.30;100.00;100598.91;5056783;28;45424;-77
2021/07/12 07:02:30;;;;;;;;;6.00;6.00;;;;;21.44;100.00;100607.81;5044735;28;45324;-78
2021/07/12 07:04:56;;;;;;;;;7.00;6.75;;;;;21.51;100.00;100598.53;5048163;28;45395;-78
2021/07/12 07:07:21;;;;;;;;;7.25;6.00;;;;;21.53;100.00;100593.97;5046921;28;46171;-76
2021/07/12 07:09:46;;;;;;;;;9.50;9.00;;;;;21.58;100.00;100600.69;5034755;28;45432;-76
2021/07/12 07:12:12;;;;;;;;;5.50;5.50;;;;;21.64;100.00;100615.41;5049018;28;45378;-76
2021/07/12 07:14:37;;;;;;;;;5.75;5.00;;;;;21.56;100.00;100602.59;5041662;28;45429;-76
2021/07/12 07:17:03;;;;;;;;;5.50;5.00;;;;;21.63;100.00;100606.56;5056398;28;45609;-76
2021/07/12 07:19:28;;;;;;;;;4.50;4.50;;;;;21.61;100.00;100619.09;5056721;28;45397;-77
2021/07/12 07:21:54;;;;;;;;;6.75;6.25;;;;;21.58;100.00;100606.00;5056856;28;45405;-77
2021/07/12 07:24:20;;;;;;;;;6.00;4.75;;;;;21.74;100.00;100599.75;5057316;28;45474;-77
2021/07/12 07:26:46;;;;;;;;;6.75;5.75;;;;;21.87;100.00;100609.50;5054379;28;46492;-77
2021/07/12 07:29:12;;;;;;;;;4.25;3.75;;;;;21.91;100.00;100618.97;5044481;28;45313;-76
2021/07/12 07:31:37;;;;;;;;;8.00;7.00;;;;;21.91;100.00;100615.47;5056464;28;45570;-78
2021/07/12 07:34:03;;;;;;;;;6.50;5.75;;;;;21.94;100.00;100626.75;5056651;28;45424;-76
2021/07/12 07:36:28;;;;;;;;;6.00;5.75;;;;;21.86;100.00;100609.59;5056565;28;46238;-76
2021/07/12 07:38:54;;;;;;;;;5.50;4.50;;;;;21.89;100.00;100602.28;5038371;28;45595;-77
2021/07/12 07:41:19;;;;;;;;;5.00;5.00;;;;;21.93;100.00;100609.09;5055779;28;45876;-77
2021/07/12 07:43:45;;;;;;;;;5.75;4.75;;;;;21.94;100.00;100608.13;5051166;28;45385;-76
2021/07/12 07:46:10;;;;;;;;;7.00;7.00;;;;;21.93;100.00;100608.25;5050713;28;46501;-77
2021/07/12 07:48:36;;;;;;;;;6.00;6.00;;;;;21.99;100.00;100622.03;5052885;28;45417;-77
2021/07/12 07:51:01;;;;;;;;;5.25;5.25;;;;;21.92;100.00;100620.69;5052561;28;45370;-77
2021/07/12 07:53:27;;;;;;;;;4.75;4.00;;;;;21.86;100.00;100610.44;5052730;28;45426;-77
2021/07/12 07:55:52;;;;;;;;;4.25;4.25;;;;;21.87;100.00;100611.28;5048865;28;45484;-77
2021/07/12 07:58:18;;;;;;;;;6.00;6.00;;;;;21.88;100.00;100607.69;5035876;28;45304;-76
2021/07/12 08:00:43;;;;;;;;;6.00;5.00;;;;;21.82;100.00;100608.94;5047445;28;45693;-76
2021/07/12 08:03:09;;;;;;;;;5.25;4.00;;;;;21.90;100.00;100619.94;5049077;28;46573;-77
2021/07/12 08:05:35;;;;;;;;;5.50;4.75;;;;;21.91;100.00;100604.81;5056274;28;46198;-77
2021/07/12 08:08:00;;;;;;;;;5.50;5.00;;;;;21.87;100.00;100592.69;5042007;28;45563;-78
2021/07/12 08:10:26;;;;;;;;;6.75;5.50;;;;;21.90;100.00;100593.34;5056550;28;45479;-77
2021/07/12 08:12:52;;;;;;;;;6.00;5.25;;;;;21.86;100.00;100597.16;5056162;28;45369;-77
2021/07/12 08:15:19;;;;;;;;;4.00;4.00;;;;;21.91;100.00;100605.69;5036214;28;45401;-77
2021/07/12 08:17:47;;;;;;;;;5.75;5.50;;;;;21.89;100.00;100596.09;5047560;28;45437;-77
2021/07/12 08:20:14;;;;;;;;;5.75;4.75;;;;;21.91;100.00;100611.00;5052296;28;45381;-77
2021/07/12 08:22:40;;;;;;;;;7.50;6.00;;;;;21.87;100.00;100613.97;5046356;28;45342;-78
2021/07/12 08:25:07;;;;;;;;;4.75;4.75;;;;;21.84;100.00;100620.31;5034770;28;47130;-77
2021/07/12 08:27:34;;;;;;;;;5.00;4.50;;;;;21.77;100.00;100615.50;5044253;28;45569;-78
2021/07/12 08:29:59;;;;;;;;;5.00;4.25;;;;;21.75;100.00;100628.88;5055854;28;45471;-77
2021/07/12 08:32:25;;;;;;;;;5.25;5.25;;;;;21.73;100.00;100635.22;5053650;28;45529;-77
2021/07/12 08:34:51;;;;;;;;;6.75;4.75;;;;;21.72;100.00;100652.97;5055542;28;46143;-77
2021/07/12 08:37:17;;;;;;;;;5.75;4.25;;;;;21.68;100.00;100662.09;5051146;28;45478;-77
2021/07/12 08:39:42;;;;;;;;;4.25;4.25;;;;;21.60;100.00;100667.88;5053405;28;45329;-77
2021/07/12 08:42:11;;;;;;;;;4.25;4.25;;;;;21.54;100.00;100662.94;5051614;28;45477;-77
2021/07/12 08:44:37;;;;;;;;;6.00;6.00;;;;;21.47;100.00;100666.06;5053498;28;46651;-78
2021/07/12 08:47:05;;;;;;;;;4.75;4.75;;;;;21.45;100.00;100674.13;5054842;28;45487;-77
2021/07/12 08:49:30;;;;;;;;;6.75;6.00;;;;;21.37;100.00;100656.00;5054474;28;45576;-77
2021/07/12 08:51:56;;;;;;;;;6.25;5.75;;;;;21.41;100.00;100664.63;5053676;28;45568;-78
2021/07/12 08:54:21;;;;;;;;;7.00;6.00;;;;;21.36;100.00;100658.75;5049181;28;48108;-78
2021/07/12 08:56:47;;;;;;;;;6.50;5.00;;;;;21.41;100.00;100659.31;5053271;28;45371;-78
2021/07/12 08:59:31;;;;;;;;;6.50;6.50;;;;;21.47;100.00;100661.59;5055483;28;45505;-77
2021/07/12 09:02:20;;;;;;;;;7.50;7.50;;;;;21.57;100.00;100653.94;5038171;28;45504;-79
2021/07/12 09:04:49;;;;;;;;;9.25;8.00;;;;;21.74;100.00;100644.94;4973559;28;45539;-77
2021/07/12 09:07:24;;;;;;;;;5.00;5.00;;;;;21.71;100.00;100630.84;4973876;28;45482;-77
2021/07/12 09:10:16;;;;;;;;;6.50;6.00;;;;;21.99;100.00;100653.94;4971808;28;45498;-77
2021/07/12 09:12:44;;;;;;;;;6.00;5.00;;;;;21.95;100.00;100647.09;4971752;28;45441;-76
2021/07/12 09:15:11;;;;;;;;;5.00;4.75;;;;;22.10;100.00;100650.59;4977026;28;45688;-77
2021/07/12 09:17:42;;;;;;;;;5.75;5.50;;;;;22.07;100.00;100631.34;4960697;28;45542;-77
2021/07/12 09:20:10;;;;;;;;;5.00;5.00;;;;;22.10;100.00;100644.44;4977310;28;45428;-77
2021/07/12 09:22:40;;;;;;;;;6.00;5.00;;;;;22.16;100.00;100652.88;4960840;28;45388;-77
2021/07/12 09:25:09;;;;;;;;;5.00;5.00;;;;;22.15;100.00;100659.13;4974783;28;47227;-77
2021/07/12 09:27:37;;;;;;;;;6.75;5.75;;;;;22.10;100.00;100657.72;4957514;28;45485;-77
2021/07/12 09:30:13;;;;;;;;;5.00;5.00;;;;;22.03;100.00;100649.25;4958331;28;45283;-77
2021/07/12 09:32:44;;;;;;;;;7.00;6.00;;;;;22.09;100.00;100661.34;4976698;28;45605;-77
2021/07/12 09:35:12;;;;;;;;;6.25;6.00;;;;;22.10;100.00;100669.22;4961962;28;46215;-77
2021/07/12 09:37:40;;;;;;;;;4.75;4.75;;;;;22.11;100.00;100672.72;4967303;28;45468;-78
2021/07/12 09:40:09;;;;;;;;;4.75;4.75;;;;;22.11;100.00;100667.41;4972652;28;45978;-78
2021/07/12 09:42:35;;;;;;;;;6.25;5.75;;;;;22.11;100.00;100670.94;5035446;28;45437;-79
2021/07/12 09:45:04;;;;;;;;;6.00;5.50;;;;;22.04;100.00;100666.97;5046602;28;45471;-77
2021/07/12 09:47:32;;;;;;;;;6.50;6.50;;;;;22.11;100.00;100668.28;5040412;28;45689;-77
2021/07/12 09:50:08;;;;;;;;;5.00;5.00;;;;;22.13;100.00;100677.00;5047431;28;45485;-78
2021/07/12 09:52:38;;;;;;;;;6.50;5.75;;;;;22.17;100.00;100685.63;5052708;28;45291;-78
2021/07/12 09:55:03;;;;;;;;;6.75;5.75;;;;;22.15;100.00;100691.06;5046330;28;45478;-79
2021/07/12 09:57:29;;;;;;;;;5.00;4.75;;;;;22.12;100.00;100682.41;5054281;28;45506;-78
2021/07/12 10:00:04;;;;;;;;;5.50;4.00;;;;;22.18;100.00;100693.53;5038998;28;45435;-78
2021/07/12 10:02:34;;;;;;;;;6.00;4.75;;;;;22.24;100.00;100694.94;5058334;28;45420;-78
2021/07/12 10:05:03;;;;;;;;;4.75;3.25;;;;;22.23;100.00;100670.16;5052814;28;45323;-78
2021/07/12 10:07:29;;;;;;;;;7.00;6.00;;;;;22.33;100.00;100675.72;5048891;28;45674;-77
2021/07/12 10:09:56;;;;;;;;;5.25;5.25;;;;;22.42;100.00;100683.16;5057602;28;45376;-78
2021/07/12 10:12:22;;;;;;;;;5.25;5.25;;;;;22.41;100.00;100683.25;5058466;28;45421;-78
2021/07/12 10:14:48;;;;;;;;;6.00;5.50;;;;;22.41;100.00;100696.53;5057867;28;45925;-78
2021/07/12 10:17:13;;;;;;;;;5.50;4.00;;;;;22.44;100.00;100688.38;5050598;28;45585;-77
2021/07/12 10:19:40;;;;;;;;;4.75;4.50;;;;;22.50;100.00;100691.47;5050607;28;45440;-78
2021/07/12 10:22:06;;;;;;;;;5.75;5.00;;;;;22.57;100.00;100692.78;5038240;28;45838;-78
2021/07/12 10:24:37;;;;;;;;;5.00;4.25;;;;;22.74;100.00;100694.34;5057495;28;46322;-77
2021/07/12 10:27:04;;;;;;;;;5.50;5.50;;;;;22.78;100.00;100695.84;5048207;28;45497;-77
2021/07/12 10:29:36;;;;;;;;;5.75;5.00;;;;;22.89;100.00;100689.84;5051821;28;45389;-77
2021/07/12 10:32:05;;;;;;;;;5.50;5.50;;;;;23.04;100.00;100691.47;5049343;28;45528;-78
2021/07/12 10:34:40;;;;;;;;;7.00;7.00;;;;;23.05;100.00;100685.19;5051339;28;45649;-79
2021/07/12 10:37:20;;;;;;;;;5.00;5.00;;;;;23.17;100.00;100688.84;5054395;28;45387;-79
2021/07/12 10:40:07;;;;;;;;;5.00;4.75;;;;;23.26;100.00;100680.22;5048044;28;45623;-79
2021/07/12 10:42:41;;;;;;;;;5.00;5.00;;;;;23.51;100.00;100677.59;5047505;28;45473;-79
2021/07/12 10:45:19;;;;;;;;;5.50;3.75;;;;;23.98;100.00;100672.56;5048441;28;46553;-78
2021/07/12 10:47:47;;;;;;;;;6.00;5.50;;;;;24.44;100.00;100664.81;5048335;28;45354;-77
2021/07/12 10:50:31;;;;;;;;;5.00;5.00;;;;;25.67;100.00;100656.38;5052477;28;45239;-77
2021/07/12 10:52:57;;;;;;;;;6.00;5.50;;;;;27.74;100.00;100639.16;5036124;28;45677;-78
2021/07/12 10:55:30;;;;;;;;;4.75;4.75;;;;;30.02;100.00;100651.19;5056259;28;46970;-77
2021/07/12 10:58:23;;;;;;;;;5.50;5.00;;;;;32.34;100.00;100649.88;5046094;28;45462;-79
2021/07/12 11:00:49;;;;;;;;;5.00;5.00;;;;;34.07;100.00;100647.78;5049589;28;45274;-77
2021/07/12 11:03:35;;;;;;;;;4.75;4.00;;;;;34.66;100.00;100654.41;5039194;28;45357;-77
2021/07/12 11:06:01;;;;;;;;;4.50;4.50;;;;;34.44;100.00;100643.53;5055242;28;47072;-76
2021/07/12 11:08:50;;;;;;;;;6.75;5.50;;;;;33.54;100.00;100649.28;5035264;28;45675;-76
2021/07/12 11:11:18;;;;;;;;;5.75;5.00;;;;;32.59;100.00;100645.38;5037588;28;45392;-76
2021/07/12 11:13:57;;;;;;;;;5.50;5.25;;;;;32.05;100.00;100636.75;5044350;28;45660;-77
2021/07/12 11:16:26;;;;;;;;;6.00;6.00;;;;;32.20;100.00;100643.25;5055679;28;45528;-77
2021/07/12 11:18:55;;;;;;;;;4.00;4.00;;;;;32.76;100.00;100635.41;5044023;28;45448;-76
2021/07/12 11:21:32;;;;;;;;;6.00;6.00;;;;;33.23;100.00;100629.34;5038548;28;45294;-78
2021/07/12 11:24:24;;;;;;;;;7.00;6.00;;;;;33.72;100.00;100627.38;5037485;28;45339;-78